Hoback Junction, Wyoming
Current Conditions -  °F | °C
As of 2:55 AM on Sunday 26 Oct 2014 (Local Time) from KJAC Reporting Station
Overcast Overcast  
Wind Chill: 41°   Ceiling: 3900
Heat Index: 46°   Visibility: 10mi
Dew Point: 34°   Wind: 10mph
Humidity: 62%   Direction: 210°SSW
Pressure: 29.98"   Gusts: 16mph
Location:  43.4143°N, 110.582°W
Report Text: KJAC 260855Z AUTO 21009G14KT 10SM OVC039 08/01 A2998 RMK AO1 52037
Loading
Personal Weather Stations






























Interactive Weather Map
Tropical Storm Tracking
New forecast layout! Learn more

10-Day Weather Forecast

Advertisements
Track Severe Weather on mobile